createdAt,value
2022-10-07T00:01:12.428Z,4.15
2022-10-07T00:03:41.214Z,4.80
2022-10-07T00:06:13.181Z,4.07
2022-10-07T00:08:43.235Z,4.13
2022-10-07T00:11:13.062Z,4.60
2022-10-07T00:13:42.685Z,4.38
2022-10-07T00:16:14.761Z,3.95
2022-10-07T00:18:43.391Z,4.05
2022-10-07T00:21:14.192Z,4.65
2022-10-07T00:23:43.511Z,4.13
2022-10-07T00:26:13.992Z,3.38
2022-10-07T00:28:42.394Z,3.83
2022-10-07T00:31:19.127Z,4.45
2022-10-07T00:33:48.187Z,4.68
2022-10-07T00:36:18.898Z,3.90
2022-10-07T00:38:50.706Z,4.00
2022-10-07T00:41:20.564Z,4.30
2022-10-07T00:43:49.044Z,4.03
2022-10-07T00:46:29.362Z,3.28
2022-10-07T00:48:59.005Z,4.43
2022-10-07T00:51:27.997Z,3.88
2022-10-07T00:53:57.122Z,3.63
2022-10-07T00:56:26.592Z,3.30
2022-10-07T00:58:54.685Z,3.10
2022-10-07T01:01:24.148Z,3.40
2022-10-07T01:03:52.176Z,3.50
2022-10-07T01:06:20.234Z,3.63
2022-10-07T01:08:49.804Z,3.25
2022-10-07T01:11:29.873Z,3.40
2022-10-07T01:14:07.846Z,3.53
2022-10-07T01:16:47.230Z,3.65
2022-10-07T01:19:32.547Z,3.78
2022-10-07T01:22:12.496Z,3.67
2022-10-07T01:24:43.884Z,3.70
2022-10-07T01:27:15.036Z,3.80
2022-10-07T01:29:47.418Z,3.95
2022-10-07T01:32:20.123Z,3.65
2022-10-07T01:34:51.359Z,3.22
2022-10-07T01:37:22.063Z,3.65
2022-10-07T01:39:54.431Z,2.80
2022-10-07T01:42:26.138Z,2.97
2022-10-07T01:44:57.674Z,3.15
2022-10-07T01:47:26.834Z,3.35
2022-10-07T01:49:54.868Z,3.75
2022-10-07T01:52:52.341Z,3.70
2022-10-07T01:55:35.129Z,3.45
2022-10-07T01:58:14.095Z,3.03
2022-10-07T02:00:46.967Z,3.83
2022-10-07T02:03:27.224Z,4.03
2022-10-07T02:06:01.983Z,3.08
2022-10-07T02:08:35.600Z,2.95
2022-10-07T02:11:13.629Z,3.85
2022-10-07T02:13:57.853Z,3.90
2022-10-07T02:16:33.350Z,3.78
2022-10-07T02:19:04.323Z,3.75
2022-10-07T02:21:36.305Z,4.43
2022-10-07T02:24:06.423Z,3.60
2022-10-07T02:26:35.799Z,3.92
2022-10-07T02:29:07.816Z,3.58
2022-10-07T02:31:38.415Z,3.47
2022-10-07T02:34:10.129Z,3.63
2022-10-07T02:36:42.908Z,3.38
2022-10-07T02:39:11.422Z,3.55
2022-10-07T02:41:44.806Z,3.30
2022-10-07T02:44:25.878Z,3.47
2022-10-07T02:46:57.525Z,3.28
2022-10-07T02:49:27.618Z,3.47
2022-10-07T02:52:00.009Z,3.47
2022-10-07T02:54:33.258Z,3.75
2022-10-07T02:57:02.323Z,3.65
2022-10-07T02:59:34.486Z,3.08
2022-10-07T03:02:05.694Z,4.22
2022-10-07T03:04:33.854Z,3.80
2022-10-07T03:07:01.945Z,3.30
2022-10-07T03:09:30.526Z,3.15
2022-10-07T03:11:58.422Z,3.15
2022-10-07T03:14:26.418Z,3.15
2022-10-07T03:16:55.644Z,2.70
2022-10-07T03:19:23.861Z,3.38
2022-10-07T03:21:51.706Z,3.47
2022-10-07T03:24:19.577Z,3.40
2022-10-07T03:26:47.441Z,3.58
2022-10-07T03:29:15.945Z,3.45
2022-10-07T03:31:43.870Z,3.20
2022-10-07T03:34:13.413Z,3.45
2022-10-07T03:36:41.357Z,3.72
2022-10-07T03:39:09.298Z,3.10
2022-10-07T03:41:37.275Z,3.50
2022-10-07T03:44:05.522Z,3.47
2022-10-07T03:46:33.498Z,3.03
2022-10-07T03:49:01.864Z,3.22
2022-10-07T03:51:31.073Z,3.25
2022-10-07T03:53:59.105Z,3.53
2022-10-07T03:56:26.993Z,3.83
2022-10-07T03:58:55.478Z,3.60
2022-10-07T04:01:23.688Z,4.00
2022-10-07T04:03:51.705Z,3.70
2022-10-07T04:06:19.819Z,3.83
2022-10-07T04:08:52.963Z,3.83
2022-10-07T04:11:20.841Z,3.30
2022-10-07T04:13:49.188Z,3.90
2022-10-07T04:16:17.142Z,3.15
2022-10-07T04:18:45.592Z,3.50
2022-10-07T04:21:13.522Z,3.40
2022-10-07T04:23:42.492Z,3.40
2022-10-07T04:26:13.639Z,3.78
2022-10-07T04:28:41.952Z,3.95
2022-10-07T04:31:11.657Z,3.70
2022-10-07T04:33:42.027Z,3.75
2022-10-07T04:36:12.058Z,3.60
2022-10-07T04:38:40.877Z,3.70
2022-10-07T04:41:09.175Z,3.67
2022-10-07T04:43:38.558Z,3.17
2022-10-07T04:46:08.627Z,4.82
2022-10-07T04:48:36.744Z,3.17
2022-10-07T04:51:06.678Z,3.45
2022-10-07T04:53:35.274Z,3.47
2022-10-07T04:56:03.726Z,4.35
2022-10-07T04:58:32.722Z,3.83
2022-10-07T05:01:02.758Z,3.40
2022-10-07T05:03:31.092Z,3.33
2022-10-07T05:06:05.840Z,3.85
2022-10-07T05:08:34.469Z,3.88
2022-10-07T05:11:03.555Z,3.70
2022-10-07T05:13:31.885Z,3.33
2022-10-07T05:16:02.405Z,4.05
2022-10-07T05:18:32.066Z,3.97
2022-10-07T05:21:00.009Z,3.85
2022-10-07T05:23:29.047Z,4.28
2022-10-07T05:26:01.378Z,4.00
2022-10-07T05:28:29.511Z,4.95
2022-10-07T05:31:07.173Z,3.90
2022-10-07T05:33:35.594Z,4.10
2022-10-07T05:36:03.766Z,3.90
2022-10-07T05:38:31.728Z,4.65
2022-10-07T05:41:00.827Z,3.92
2022-10-07T05:43:29.320Z,4.15
2022-10-07T05:46:02.077Z,4.25
2022-10-07T05:48:38.084Z,3.80
2022-10-07T05:51:07.979Z,3.75
2022-10-07T05:53:35.931Z,4.32
2022-10-07T05:56:06.579Z,3.38
2022-10-07T05:58:36.183Z,3.88
2022-10-07T06:01:11.465Z,3.72
2022-10-07T06:03:43.503Z,4.10
2022-10-07T06:06:11.469Z,4.35
2022-10-07T06:08:39.379Z,3.72
2022-10-07T06:11:25.699Z,3.80
2022-10-07T06:13:55.119Z,4.25
2022-10-07T06:16:24.033Z,3.70
2022-10-07T06:18:54.444Z,3.83
2022-10-07T06:21:26.501Z,3.80
2022-10-07T06:23:55.277Z,3.25
2022-10-07T06:26:24.184Z,3.47
2022-10-07T06:28:52.263Z,3.65
2022-10-07T06:31:22.493Z,3.30
2022-10-07T06:33:50.582Z,3.00
2022-10-07T06:36:20.053Z,3.60
2022-10-07T06:38:49.075Z,3.70
2022-10-07T06:41:17.655Z,3.08
2022-10-07T06:43:46.039Z,3.63
2022-10-07T06:46:15.698Z,3.80
2022-10-07T06:48:44.554Z,3.65
2022-10-07T06:51:15.261Z,3.75
2022-10-07T06:53:45.325Z,4.30
2022-10-07T06:56:14.995Z,4.60
2022-10-07T06:58:43.570Z,4.53
2022-10-07T07:01:11.823Z,4.25
2022-10-07T07:03:40.005Z,3.75
2022-10-07T07:06:08.905Z,4.80
2022-10-07T07:08:38.694Z,4.70
2022-10-07T07:11:30.936Z,5.30
2022-10-07T07:13:59.542Z,5.57
2022-10-07T07:16:27.744Z,5.43
2022-10-07T07:18:56.985Z,5.00
2022-10-07T07:21:25.857Z,6.15
2022-10-07T07:23:53.789Z,5.10
2022-10-07T07:26:23.356Z,5.18
2022-10-07T07:28:54.954Z,5.20
2022-10-07T07:31:23.045Z,5.38
2022-10-07T07:33:52.611Z,5.32
2022-10-07T07:36:24.038Z,6.10
2022-10-07T07:38:53.641Z,6.68
2022-10-07T07:41:25.647Z,6.68
2022-10-07T07:43:55.400Z,5.55
2022-10-07T07:46:26.105Z,5.80
2022-10-07T07:48:54.941Z,5.90
2022-10-07T07:51:24.140Z,6.45
2022-10-07T07:53:52.279Z,7.13
2022-10-07T07:56:22.337Z,6.90
2022-10-07T07:58:50.225Z,7.80
2022-10-07T08:01:19.756Z,6.95
2022-10-07T08:03:48.916Z,6.80
2022-10-07T08:06:19.443Z,7.95
2022-10-07T08:08:47.724Z,7.47
2022-10-07T08:11:17.749Z,7.80
2022-10-07T08:13:48.518Z,7.55
2022-10-07T08:16:18.873Z,7.50
2022-10-07T08:18:48.095Z,8.40
2022-10-07T08:21:18.548Z,7.40
2022-10-07T08:23:47.592Z,8.43
2022-10-07T08:26:16.078Z,7.95
2022-10-07T08:28:44.023Z,8.30
2022-10-07T08:31:14.521Z,8.95
2022-10-07T08:33:45.412Z,8.98
2022-10-07T08:36:15.735Z,9.00
2022-10-07T08:38:51.210Z,9.13
2022-10-07T08:41:39.803Z,8.88
2022-10-07T08:44:27.331Z,7.93
2022-10-07T08:47:02.623Z,8.63
2022-10-07T08:49:40.302Z,8.43
2022-10-07T08:52:29.944Z,9.10
2022-10-07T08:54:59.251Z,8.73
2022-10-07T08:57:39.359Z,8.70
2022-10-07T09:00:09.132Z,8.13
2022-10-07T09:02:45.898Z,7.82
2022-10-07T09:05:21.874Z,7.95
2022-10-07T09:07:54.016Z,7.15
2022-10-07T09:10:32.095Z,7.63
2022-10-07T09:15:39.019Z,8.88
2022-10-07T09:18:16.982Z,8.23
2022-10-07T09:20:48.198Z,7.95
2022-10-07T09:23:16.603Z,9.43
2022-10-07T09:25:45.092Z,7.70
2022-10-07T09:28:15.555Z,8.10
2022-10-07T09:30:44.109Z,9.27
2022-10-07T09:33:18.095Z,8.10
2022-10-07T09:35:57.405Z,7.13
2022-10-07T09:38:33.968Z,6.82
2022-10-07T09:41:19.636Z,5.93
2022-10-07T09:44:00.164Z,6.60
2022-10-07T09:46:46.749Z,6.57
2022-10-07T09:49:41.044Z,6.53
2022-10-07T09:52:17.448Z,6.97
2022-10-07T09:54:47.459Z,7.93
2022-10-07T09:57:28.084Z,7.47
2022-10-07T10:00:19.197Z,7.47
2022-10-07T10:02:49.474Z,7.20
2022-10-07T10:05:26.102Z,7.05
2022-10-07T10:07:56.870Z,7.38
2022-10-07T10:10:28.015Z,6.85
2022-10-07T10:12:58.383Z,6.47
2022-10-07T10:15:30.500Z,7.50
2022-10-07T10:17:58.705Z,7.97
2022-10-07T10:20:31.409Z,7.72
2022-10-07T10:23:01.065Z,7.10
2022-10-07T10:25:56.403Z,5.90
2022-10-07T10:28:39.473Z,7.30
2022-10-07T10:31:17.925Z,7.57
2022-10-07T10:33:52.778Z,7.15
2022-10-07T10:36:25.026Z,8.25
2022-10-07T10:39:01.509Z,7.78
2022-10-07T10:41:35.603Z,6.75
2022-10-07T10:44:22.426Z,6.30
2022-10-07T10:46:56.494Z,7.50
2022-10-07T10:49:30.570Z,6.72
2022-10-07T10:52:21.067Z,7.20
2022-10-07T10:55:02.051Z,6.85
2022-10-07T10:57:42.471Z,6.85
2022-10-07T11:00:13.721Z,6.57
2022-10-07T11:03:23.588Z,6.47
2022-10-07T11:05:52.208Z,6.07
2022-10-07T11:08:27.541Z,6.45
2022-10-07T11:10:58.934Z,6.30
2022-10-07T11:13:35.522Z,6.40
2022-10-07T11:16:09.231Z,6.30
2022-10-07T11:18:45.495Z,6.90
2022-10-07T11:21:18.207Z,7.85
2022-10-07T11:23:55.462Z,5.97
2022-10-07T11:26:32.444Z,6.13
2022-10-07T11:29:11.333Z,5.72
2022-10-07T11:31:42.650Z,7.22
2022-10-07T11:34:18.381Z,6.18
2022-10-07T11:36:53.772Z,6.72
2022-10-07T11:39:24.057Z,6.35
2022-10-07T11:41:58.404Z,6.70
2022-10-07T11:44:30.616Z,6.25
2022-10-07T11:47:02.910Z,6.78
2022-10-07T11:49:35.931Z,6.90
2022-10-07T11:52:06.730Z,6.53
2022-10-07T11:54:42.882Z,6.10
2022-10-07T11:57:21.807Z,8.18
2022-10-07T11:59:51.920Z,7.70
2022-10-07T12:02:41.275Z,7.13
2022-10-07T12:06:02.447Z,6.75
2022-10-07T12:08:35.539Z,6.78
2022-10-07T12:11:43.396Z,6.45
2022-10-07T12:14:44.633Z,5.47
2022-10-07T12:17:25.200Z,5.93
2022-10-07T12:20:37.679Z,6.18
2022-10-07T12:23:36.710Z,6.32
2022-10-07T12:26:06.778Z,6.30
2022-10-07T12:28:46.019Z,5.13
2022-10-07T12:31:47.691Z,5.22
2022-10-07T12:34:27.906Z,4.90
2022-10-07T12:37:31.155Z,5.45
2022-10-07T12:39:59.959Z,5.65
2022-10-07T12:42:29.685Z,5.65
2022-10-07T12:45:00.014Z,5.10
2022-10-07T12:47:30.617Z,5.15
2022-10-07T12:50:02.311Z,4.50
2022-10-07T12:52:40.836Z,4.90
2022-10-07T12:55:11.434Z,6.20
2022-10-07T12:57:43.736Z,5.45
2022-10-07T13:00:15.433Z,6.10
2022-10-07T13:03:27.025Z,5.90
2022-10-07T13:06:45.772Z,5.68
2022-10-07T13:09:54.466Z,5.55
2022-10-07T13:12:30.674Z,4.90
2022-10-07T13:15:11.839Z,5.35
2022-10-07T13:17:47.315Z,5.25
2022-10-07T13:20:29.049Z,5.15
2022-10-07T13:22:57.514Z,4.10
2022-10-07T13:25:25.403Z,4.65
2022-10-07T13:27:56.784Z,5.10
2022-10-07T13:30:37.155Z,4.70
2022-10-07T13:33:28.917Z,4.47
2022-10-07T13:36:16.859Z,5.13
2022-10-07T13:38:46.251Z,5.78
2022-10-07T13:41:25.333Z,5.65
2022-10-07T13:43:56.682Z,5.25
2022-10-07T13:46:27.514Z,5.70
2022-10-07T13:48:56.953Z,5.60
2022-10-07T13:51:37.412Z,6.53
2022-10-07T13:54:08.741Z,7.68
2022-10-07T13:56:41.151Z,6.20
2022-10-07T13:59:15.943Z,6.32
2022-10-07T14:01:44.185Z,4.93
2022-10-07T14:04:20.207Z,5.40
2022-10-07T14:06:54.309Z,5.45
2022-10-07T14:09:26.364Z,5.20
2022-10-07T14:11:57.538Z,5.68
2022-10-07T14:14:28.393Z,5.75
2022-10-07T14:17:00.118Z,6.03
2022-10-07T14:19:33.418Z,5.47
2022-10-07T14:22:05.852Z,5.68
2022-10-07T14:24:33.883Z,5.93
2022-10-07T14:27:02.045Z,5.30
2022-10-07T14:29:37.644Z,6.22
2022-10-07T14:32:29.256Z,5.60
2022-10-07T14:35:14.892Z,5.15
2022-10-07T14:37:44.337Z,5.40
2022-10-07T14:40:20.547Z,7.50
2022-10-07T14:42:49.973Z,5.70
2022-10-07T14:45:18.742Z,5.88
2022-10-07T14:47:46.873Z,5.95
2022-10-07T14:50:16.288Z,6.15
2022-10-07T14:52:47.874Z,6.07
2022-10-07T14:55:19.693Z,7.10
2022-10-07T14:57:48.091Z,5.57
2022-10-07T15:00:20.131Z,5.22
2022-10-07T15:02:50.122Z,5.57
2022-10-07T15:05:18.772Z,6.10
2022-10-07T15:07:49.820Z,5.30
2022-10-07T15:10:19.609Z,6.18
2022-10-07T15:12:48.765Z,6.25
2022-10-07T15:15:17.710Z,5.78
2022-10-07T15:17:45.951Z,5.95
2022-10-07T15:20:16.055Z,6.38
2022-10-07T15:22:45.211Z,6.65
2022-10-07T15:25:15.767Z,6.28
2022-10-07T15:27:43.755Z,6.85
2022-10-07T15:30:13.224Z,6.85
2022-10-07T15:32:41.155Z,7.30
2022-10-07T15:35:09.706Z,6.70
2022-10-07T15:37:37.602Z,6.22
2022-10-07T15:40:07.445Z,6.80
2022-10-07T15:42:36.995Z,6.60
2022-10-07T15:45:05.278Z,7.53
2022-10-07T15:47:34.290Z,6.20
2022-10-07T15:50:02.249Z,6.68
2022-10-07T15:52:30.132Z,7.03
2022-10-07T15:54:58.009Z,6.55
2022-10-07T15:57:26.990Z,6.68
2022-10-07T15:59:56.246Z,7.28
2022-10-07T16:02:24.868Z,7.28
2022-10-07T16:04:52.867Z,6.35
2022-10-07T16:07:20.726Z,6.40
2022-10-07T16:09:48.619Z,6.22
2022-10-07T16:12:16.476Z,7.30
2022-10-07T16:14:44.331Z,7.00
2022-10-07T16:17:14.286Z,7.03
2022-10-07T16:19:42.180Z,7.03
2022-10-07T16:22:10.037Z,6.63
2022-10-07T16:24:39.627Z,6.88
2022-10-07T16:27:07.647Z,6.57
2022-10-07T16:29:53.259Z,6.57
2022-10-07T16:32:22.423Z,6.75
2022-10-07T16:34:50.302Z,7.57
2022-10-07T16:37:18.154Z,7.90
2022-10-07T16:39:46.018Z,6.88
2022-10-07T16:42:14.475Z,7.57
2022-10-07T16:44:43.273Z,6.95
2022-10-07T16:47:13.533Z,6.97
2022-10-07T16:49:43.088Z,6.60
2022-10-07T16:52:11.894Z,7.13
2022-10-07T16:54:40.612Z,7.00
2022-10-07T16:57:08.471Z,7.60
2022-10-07T16:59:36.338Z,7.22
2022-10-07T17:02:06.254Z,7.70
2022-10-07T17:04:34.157Z,8.55
2022-10-07T17:07:05.717Z,8.77
2022-10-07T17:09:33.643Z,9.50
2022-10-07T17:12:01.603Z,8.73
2022-10-07T17:14:31.612Z,8.93
2022-10-07T17:17:00.347Z,9.18
2022-10-07T17:19:29.830Z,8.38
2022-10-07T17:21:59.675Z,9.13
2022-10-07T17:24:29.915Z,8.45
2022-10-07T17:26:57.750Z,8.30
2022-10-07T17:29:26.307Z,8.43
2022-10-07T17:31:55.137Z,8.75
2022-10-07T17:34:23.656Z,7.75
2022-10-07T17:36:52.121Z,8.65
2022-10-07T17:39:20.453Z,8.27
2022-10-07T17:41:49.902Z,8.43
2022-10-07T17:44:18.524Z,8.73
2022-10-07T17:46:48.815Z,7.70
2022-10-07T17:49:16.908Z,8.27
2022-10-07T17:51:44.781Z,8.05
2022-10-07T17:54:14.215Z,8.93
2022-10-07T17:56:47.496Z,8.05
2022-10-07T17:59:17.254Z,8.57
2022-10-07T18:01:45.470Z,8.90
2022-10-07T18:04:17.944Z,10.32
2022-10-07T18:06:49.049Z,9.48
2022-10-07T18:09:19.323Z,8.60
2022-10-07T18:12:05.195Z,10.15
2022-10-07T18:14:54.176Z,10.15
2022-10-07T18:17:22.349Z,10.13
2022-10-07T18:19:50.255Z,9.73
2022-10-07T18:22:18.137Z,10.02
2022-10-07T18:24:46.034Z,8.85
2022-10-07T18:27:14.311Z,9.75
2022-10-07T18:29:43.495Z,8.45
2022-10-07T18:32:11.391Z,10.23
2022-10-07T18:34:39.325Z,7.95
2022-10-07T18:37:07.199Z,8.70
2022-10-07T18:39:35.101Z,9.60
2022-10-07T18:42:04.388Z,10.38
2022-10-07T18:44:32.358Z,9.73
2022-10-07T18:47:01.535Z,9.77
2022-10-07T18:49:29.423Z,8.63
2022-10-07T18:51:57.282Z,10.77
2022-10-07T18:54:25.275Z,10.35
2022-10-07T18:56:53.312Z,9.88
2022-10-07T18:59:21.959Z,10.57
2022-10-07T19:01:51.058Z,9.65
2022-10-07T19:04:20.862Z,9.65
2022-10-07T19:06:49.442Z,10.02
2022-10-07T19:09:19.775Z,9.57
2022-10-07T19:11:48.237Z,9.95
2022-10-07T19:14:16.055Z,9.90
2022-10-07T19:16:45.989Z,9.20
2022-10-07T19:19:17.082Z,9.65
2022-10-07T19:21:48.578Z,9.30
2022-10-07T19:24:17.449Z,10.50
2022-10-07T19:26:47.010Z,9.27
2022-10-07T19:29:16.688Z,10.45
2022-10-07T19:31:46.310Z,10.18
2022-10-07T19:34:16.019Z,8.77
2022-10-07T19:36:47.281Z,9.88
2022-10-07T19:39:17.211Z,9.60
2022-10-07T19:41:45.928Z,11.00
2022-10-07T19:44:15.144Z,10.40
2022-10-07T19:46:43.038Z,9.05
2022-10-07T19:49:11.206Z,9.55
2022-10-07T19:51:41.823Z,10.23
2022-10-07T19:54:13.025Z,11.70
2022-10-07T19:56:41.613Z,10.02
2022-10-07T19:59:11.543Z,10.38
2022-10-07T20:01:42.362Z,10.45
2022-10-07T20:04:13.343Z,10.02
2022-10-07T20:06:42.126Z,11.25
2022-10-07T20:09:13.857Z,10.45
2022-10-07T20:11:42.391Z,9.68
2022-10-07T20:14:10.518Z,10.02
2022-10-07T20:16:39.484Z,10.73
2022-10-07T20:19:09.380Z,9.65
2022-10-07T20:21:39.285Z,9.80
2022-10-07T20:24:08.501Z,9.35
2022-10-07T20:26:39.487Z,10.18
2022-10-07T20:29:10.272Z,9.23
2022-10-07T20:31:40.695Z,9.82
2022-10-07T20:34:11.143Z,9.32
2022-10-07T20:36:41.231Z,10.13
2022-10-07T20:39:31.632Z,9.45
2022-10-07T20:42:18.994Z,9.43
2022-10-07T20:44:48.135Z,9.32
2022-10-07T20:47:16.183Z,9.93
2022-10-07T20:49:44.063Z,9.52
2022-10-07T20:52:14.094Z,10.05
2022-10-07T20:54:41.972Z,9.20
2022-10-07T20:57:12.887Z,9.85
2022-10-07T20:59:40.836Z,10.63
2022-10-07T21:02:09.787Z,11.70
2022-10-07T21:04:37.805Z,9.25
2022-10-07T21:07:05.859Z,10.13
2022-10-07T21:09:36.496Z,9.93
2022-10-07T21:12:07.214Z,10.40
2022-10-07T21:14:36.892Z,10.45
2022-10-07T21:17:05.811Z,11.65
2022-10-07T21:19:35.588Z,10.65
2022-10-07T21:22:03.895Z,9.63
2022-10-07T21:24:34.154Z,10.15
2022-10-07T21:27:02.843Z,11.30
2022-10-07T21:29:32.070Z,11.10
2022-10-07T21:32:01.963Z,11.18
2022-10-07T21:34:30.630Z,11.98
2022-10-07T21:36:59.067Z,11.80
2022-10-07T21:39:27.003Z,11.45
2022-10-07T21:41:55.224Z,11.43
2022-10-07T21:44:23.063Z,12.13
2022-10-07T21:46:50.999Z,12.13
2022-10-07T21:49:20.328Z,13.57
2022-10-07T21:51:48.173Z,11.40
2022-10-07T21:54:16.159Z,12.70
2022-10-07T21:56:46.077Z,13.13
2022-10-07T21:59:14.437Z,13.98
2022-10-07T22:01:43.146Z,12.95
2022-10-07T22:04:17.477Z,12.43
2022-10-07T22:07:04.258Z,12.85
2022-10-07T22:09:32.250Z,13.02
2022-10-07T22:12:00.168Z,14.05
2022-10-07T22:14:28.591Z,14.52
2022-10-07T22:16:56.774Z,14.68
2022-10-07T22:19:25.207Z,15.07
2022-10-07T22:21:54.471Z,14.65
2022-10-07T22:24:23.901Z,14.27
2022-10-07T22:26:52.095Z,14.65
2022-10-07T22:29:21.565Z,14.73
2022-10-07T22:31:49.508Z,15.10
2022-10-07T22:34:35.679Z,14.85
2022-10-07T22:37:05.983Z,15.40
2022-10-07T22:39:33.822Z,14.40
2022-10-07T22:42:02.300Z,14.63
2022-10-07T22:44:31.768Z,15.43
2022-10-07T22:47:00.239Z,16.73
2022-10-07T22:49:30.263Z,13.77
2022-10-07T22:51:59.661Z,13.45
2022-10-07T22:54:30.081Z,15.02
2022-10-07T22:56:57.928Z,14.70
2022-10-07T22:59:25.881Z,14.90
2022-10-07T23:01:54.027Z,15.60
2022-10-07T23:04:21.883Z,15.65
2022-10-07T23:06:49.812Z,14.77
2022-10-07T23:09:17.669Z,14.80
2022-10-07T23:11:46.932Z,15.55
2022-10-07T23:14:14.870Z,15.43
2022-10-07T23:16:44.161Z,14.13
2022-10-07T23:19:12.102Z,15.38
2022-10-07T23:21:39.989Z,14.52
2022-10-07T23:24:10.058Z,15.52
2022-10-07T23:26:38.343Z,14.32
2022-10-07T23:29:08.528Z,13.63
2022-10-07T23:31:36.474Z,14.98
2022-10-07T23:34:04.832Z,13.68
2022-10-07T23:36:34.742Z,14.93
2022-10-07T23:39:02.933Z,14.88
2022-10-07T23:41:31.975Z,16.02
2022-10-07T23:44:01.959Z,15.63
2022-10-07T23:46:34.988Z,17.13
2022-10-07T23:49:03.644Z,15.63
2022-10-07T23:51:32.153Z,14.35
2022-10-07T23:54:02.129Z,14.77
2022-10-07T23:56:30.973Z,15.73
2022-10-07T23:58:59.167Z,16.00
